Time;durP1;ratioP1;P1;durP2;ratioP2;P2;SDS_P1;SDS_P2;PMS_P1;PMS_P2;Temp;Humidity;BMP_temperature;BMP_pressure;BME280_temperature;BME280_humidity;BME280_pressure;Samples;Min_cycle;Max_cycle;Signal;HPM_P1;HPM_P2
2022/05/22 00:01:15;;;;;;;23.27;2.70;;;;;;;25.11;55.44;99579.72;7308403;19;158888;-40
2022/05/22 00:03:41;;;;;;;40.35;4.07;;;;;;;25.10;54.48;99580.72;7310354;19;129246;-37
2022/05/22 00:06:06;;;;;;;13.53;1.90;;;;;;;25.11;54.86;99579.72;7309851;19;129783;-41
2022/05/22 00:08:32;;;;;;;20.00;2.37;;;;;;;25.12;54.68;99573.50;7311050;19;129571;-39
2022/05/22 00:10:57;;;;;;;23.77;2.57;;;;;;;25.14;55.04;99574.16;7309155;19;158700;-39
2022/05/22 00:13:22;;;;;;;32.97;3.50;;;;;;;25.11;54.92;99569.19;7308898;19;154372;-40
2022/05/22 00:18:31;;;;;;;28.45;3.25;;;;;;;25.12;55.00;99574.31;7309375;19;130475;-39
2022/05/22 00:20:56;;;;;;;27.77;3.00;;;;;;;25.14;55.34;99579.44;7308650;19;158419;-40
2022/05/22 00:23:23;;;;;;;29.20;3.20;;;;;;;25.10;55.64;99570.19;7307440;19;154709;-39
2022/05/22 00:25:48;;;;;;;20.60;2.45;;;;;;;25.10;55.18;99568.41;7309861;19;130155;-39
2022/05/22 00:28:13;;;;;;;29.00;2.97;;;;;;;25.11;54.92;99577.09;7306135;19;130645;-39
2022/05/22 00:30:39;;;;;;;40.47;4.17;;;;;;;25.11;55.62;99563.94;7307377;19;159246;-37
2022/05/22 00:33:06;;;;;;;28.43;3.20;;;;;;;25.09;54.93;99561.47;7308889;19;131042;-39
2022/05/22 00:35:31;;;;;;;42.83;4.55;;;;;;;25.09;54.45;99568.56;7308863;19;128973;-37
2022/05/22 00:37:57;;;;;;;19.97;2.27;;;;;;;25.10;54.79;99573.66;7308627;19;130332;-40
2022/05/22 00:40:22;;;;;;;36.50;3.47;;;;;;;25.12;54.99;99569.03;7307952;19;158522;-39
2022/05/22 00:42:50;;;;;;;37.40;3.67;;;;;;;25.11;55.41;99569.19;7312239;19;155171;-38
2022/05/22 00:45:15;;;;;;;38.15;3.83;;;;;;;25.09;55.54;99571.19;7315359;19;131007;-39
2022/05/22 00:47:41;;;;;;;31.10;3.13;;;;;;;25.08;54.80;99569.53;7313767;19;129635;-38
2022/05/22 00:50:06;;;;;;;27.37;3.13;;;;;;;25.09;55.60;99569.38;7314583;19;158501;-39
2022/05/22 00:52:53;;;;;;;31.67;3.13;;;;;;;25.11;55.67;99569.19;7316711;19;129625;-40
2022/05/22 00:55:22;;;;;;;35.20;3.47;;;;;;;25.08;55.46;99569.53;7316853;19;129160;-38
2022/05/22 00:57:51;;;;;;;30.92;3.30;;;;;;;25.06;55.02;99564.44;7313972;19;129080;-40
2022/05/22 01:00:23;;;;;;;20.27;2.45;;;;;;;25.08;55.84;99561.66;7313347;19;129488;-39
2022/05/22 01:05:35;;;;;;;40.90;4.35;;;;;;;25.04;55.06;99555.88;7315020;19;130677;-39
2022/05/22 01:08:02;;;;;;;28.35;2.95;;;;;;;25.07;55.84;99557.38;7314372;19;132015;-37
2022/05/22 01:10:47;;;;;;;;;;;;;;;25.15;55.37;99560.00;7315996;19;132146;-41
2022/05/22 01:13:16;;;;;;;13.77;1.83;;;;;;;25.06;54.95;99553.91;7315198;19;129473;-39
2022/05/22 01:15:42;;;;;;;31.42;3.20;;;;;;;25.04;54.71;99555.09;7314851;19;129868;-39
2022/05/22 01:18:07;;;;;;;26.03;3.00;;;;;;;25.05;55.03;99546.19;7313606;19;129279;-39
2022/05/22 01:20:33;;;;;;;35.93;3.93;;;;;;;25.07;54.46;99538.97;7315699;19;129568;-39
2022/05/22 01:22:58;;;;;;;11.48;1.85;;;;;;;25.01;54.30;99529.06;7314102;19;155029;-36
2022/05/22 01:25:23;;;;;;;44.53;4.57;;;;;;;25.08;55.52;99532.72;7314004;19;154130;-39
2022/05/22 01:27:49;;;;;;;20.70;2.38;;;;;;;25.07;55.06;99547.66;7311282;19;158579;-37
2022/05/22 01:30:24;;;;;;;26.10;3.10;;;;;;;25.01;55.34;99531.69;7316140;19;130131;-37
2022/05/22 01:32:50;;;;;;;31.55;3.15;;;;;;;25.06;55.35;99543.41;7313647;19;129017;-39
2022/05/22 01:35:21;;;;;;;29.87;3.33;;;;;;;25.05;55.37;99539.13;7314257;19;129234;-37
2022/05/22 01:37:48;;;;;;;35.90;3.58;;;;;;;25.06;54.99;99539.94;7312749;19;130403;-39
2022/05/22 01:40:13;;;;;;;21.35;2.38;;;;;;;25.09;55.14;99542.25;7315621;19;130895;-40
2022/05/22 01:42:40;;;;;;;36.97;3.53;;;;;;;25.06;55.24;99546.03;7312364;19;129741;-38
2022/05/22 01:45:06;;;;;;;;;;;;;;;25.16;55.29;99540.59;7315505;19;130166;-41
2022/05/22 01:47:32;;;;;;;23.88;2.63;;;;;;;25.05;55.03;99547.03;7312100;19;130839;-38
2022/05/22 01:49:58;;;;;;;38.42;4.20;;;;;;;25.02;55.01;99549.97;7313469;19;129366;-37
2022/05/22 01:52:23;;;;;;;8.10;1.27;;;;;;;25.06;55.14;99545.19;7312848;19;136094;-40
2022/05/22 01:54:48;;;;;;;21.20;2.30;;;;;;;25.07;55.08;99541.59;7313394;19;154359;-37
2022/05/22 01:57:13;;;;;;;25.00;2.88;;;;;;;25.07;55.01;99544.22;7309967;19;159144;-41
2022/05/22 01:59:39;;;;;;;27.37;2.57;;;;;;;25.05;55.32;99548.81;7312167;19;158453;-40
2022/05/22 02:02:04;;;;;;;28.97;3.33;;;;;;;25.05;55.00;99538.28;7311434;19;155630;-41
2022/05/22 02:04:30;;;;;;;27.23;2.87;;;;;;;25.04;55.26;99544.56;7312518;19;154700;-41
2022/05/22 02:09:40;;;;;;;26.55;2.72;;;;;;;25.02;55.67;99547.34;7316245;19;129079;-41
2022/05/22 02:12:05;;;;;;;27.67;3.00;;;;;;;25.04;55.11;99542.72;7313392;19;144615;-39
2022/05/22 02:14:30;;;;;;;28.33;2.87;;;;;;;25.01;54.87;99539.59;7314986;19;129170;-41
2022/05/22 02:16:56;;;;;;;29.57;3.23;;;;;;;25.03;55.28;99545.53;7311610;19;158871;-38
2022/05/22 02:19:21;;;;;;;27.13;2.77;;;;;;;25.02;55.41;99536.81;7311844;19;159178;-39
2022/05/22 02:21:46;;;;;;;34.50;3.67;;;;;;;25.03;54.70;99535.00;7310599;19;154500;-39
2022/05/22 02:24:11;;;;;;;21.40;2.22;;;;;;;25.02;55.12;99536.00;7312567;19;154057;-38
2022/05/22 02:26:37;;;;;;;34.40;3.40;;;;;;;25.04;55.55;99541.94;7311723;19;158847;-39
2022/05/22 02:29:03;;;;;;;21.20;2.50;;;;;;;25.04;55.76;99540.09;7313903;19;129923;-38
2022/05/22 02:31:28;;;;;;;23.77;2.35;;;;;;;24.99;55.05;99531.06;7313010;19;128974;-38
2022/05/22 02:33:53;;;;;;;21.43;2.57;;;;;;;25.01;55.41;99539.59;7312409;19;130390;-39
2022/05/22 02:36:18;;;;;;;24.25;2.63;;;;;;;25.01;55.49;99543.06;7311220;19;158507;-39
2022/05/22 02:38:44;;;;;;;43.93;4.27;;;;;;;24.95;55.05;99527.09;7310548;19;159492;-38
2022/05/22 02:41:19;;;;;;;34.40;3.73;;;;;;;25.03;55.74;99540.25;7310295;19;146677;-38
2022/05/22 02:43:44;;;;;;;33.13;3.40;;;;;;;24.97;55.12;99539.13;7312967;19;129643;-38
2022/05/22 02:46:15;;;;;;;32.40;3.17;;;;;;;24.96;55.01;99534.81;7312072;19;129214;-38
2022/05/22 02:48:41;;;;;;;26.10;2.78;;;;;;;24.99;54.87;99533.69;7313276;19;130712;-39
2022/05/22 02:51:11;;;;;;;38.70;4.13;;;;;;;25.00;55.59;99535.34;7312656;19;129979;-39
2022/05/22 02:53:36;;;;;;;27.33;2.72;;;;;;;25.01;54.91;99534.34;7313162;19;129710;-39
2022/05/22 02:56:15;;;;;;;30.00;2.93;;;;;;;25.04;55.48;99536.66;7310745;19;158912;-40
2022/05/22 02:58:41;;;;;;;36.35;3.50;;;;;;;24.99;55.14;99538.97;7311667;19;129576;-39
2022/05/22 03:01:06;;;;;;;38.40;4.20;;;;;;;25.00;55.48;99545.84;7308399;19;153042;-39
2022/05/22 03:03:32;;;;;;;56.47;4.97;;;;;;;25.00;55.32;99540.59;7308862;19;154666;-40
2022/05/22 03:08:42;;;;;;;52.72;4.78;;;;;;;25.00;55.43;99540.59;7311702;19;129588;-40
2022/05/22 03:11:07;;;;;;;40.03;4.40;;;;;;;24.99;55.27;99538.97;7308429;19;129623;-42
2022/05/22 03:13:34;;;;;;;40.67;3.97;;;;;;;24.99;55.57;99528.44;7309095;19;148087;-39
2022/05/22 03:15:59;;;;;;;21.65;2.30;;;;;;;24.99;54.60;99539.75;7310679;19;129427;-38
2022/05/22 03:18:24;;;;;;;26.83;2.80;;;;;;;25.00;55.32;99532.69;7309309;19;159147;-42
2022/05/22 03:20:50;;;;;;;20.10;2.10;;;;;;;25.00;55.19;99533.53;7309827;19;155664;-40
2022/05/22 03:23:15;;;;;;;25.67;2.67;;;;;;;24.99;54.53;99528.44;7310584;19;153895;-40
2022/05/22 03:25:43;;;;;;;49.63;4.80;;;;;;;24.97;55.48;99531.22;7309235;19;129210;-37
2022/05/22 03:28:09;;;;;;;27.27;2.60;;;;;;;25.00;55.09;99535.34;7309032;19;129370;-38
2022/05/22 03:30:34;;;;;;;35.63;3.80;;;;;;;25.00;55.14;99535.34;7308825;19;154406;-38
2022/05/22 03:32:59;;;;;;;20.93;2.20;;;;;;;24.97;55.11;99533.88;7310281;19;153910;-40
2022/05/22 03:35:24;;;;;;;46.85;4.68;;;;;;;24.95;55.68;99535.81;7308977;19;158423;-38
2022/05/22 03:37:50;;;;;;;24.50;2.70;;;;;;;24.98;55.46;99537.28;7308370;19;158779;-38
2022/05/22 03:40:15;;;;;;;31.00;3.17;;;;;;;25.00;54.45;99540.59;7311021;19;154525;-37
2022/05/22 03:42:41;;;;;;;27.70;2.77;;;;;;;24.97;54.87;99543.56;7307100;19;128980;-42
2022/05/22 03:45:07;;;;;;;26.77;2.67;;;;;;;24.96;55.37;99539.25;7310407;19;129151;-38
2022/05/22 03:47:32;;;;;;;27.02;2.75;;;;;;;24.96;54.97;99544.53;7308672;19;129773;-41
2022/05/22 03:49:59;;;;;;;29.47;2.77;;;;;;;24.89;54.99;99533.03;7309349;19;154679;-39
2022/05/22 03:52:24;;;;;;;17.25;1.85;;;;;;;24.94;54.82;99536.00;7310312;19;128915;-38
2022/05/22 03:54:49;;;;;;;33.30;3.27;;;;;;;24.94;54.78;99541.25;7307701;19;157820;-38
2022/05/22 03:57:14;;;;;;;24.03;2.37;;;;;;;24.96;55.12;99534.81;7307509;19;159689;-38
2022/05/22 03:59:41;;;;;;;31.30;3.23;;;;;;;24.97;55.79;99536.50;7308773;19;154358;-38
2022/05/22 04:02:06;;;;;;;20.38;2.00;;;;;;;24.97;55.61;99530.41;7304915;19;153946;-38
2022/05/22 04:04:32;;;;;;;31.80;3.17;;;;;;;24.96;55.20;99528.75;7310399;19;130594;-38
2022/05/22 04:06:57;;;;;;;22.87;2.23;;;;;;;24.97;55.66;99533.03;7307105;19;130915;-37
2022/05/22 04:09:26;;;;;;;28.33;3.08;;;;;;;24.97;54.88;99527.78;7307214;19;154510;-38
2022/05/22 04:11:51;;;;;;;35.00;3.45;;;;;;;24.93;54.92;99519.38;7307963;19;129054;-38
2022/05/22 04:14:19;;;;;;;23.27;2.40;;;;;;;24.92;56.00;99519.53;7308742;19;159069;-38
2022/05/22 04:16:44;;;;;;;26.55;2.72;;;;;;;24.94;54.49;99525.47;7305462;19;159322;-37
2022/05/22 04:19:10;;;;;;;30.00;3.03;;;;;;;24.95;54.53;99521.84;7307303;19;154811;-38
2022/05/22 04:21:35;;;;;;;30.20;2.80;;;;;;;24.94;54.34;99521.00;7308135;19;129362;-38
2022/05/22 04:26:44;;;;;;;29.58;2.88;;;;;;;24.93;55.26;99523.81;7308458;19;129710;-37
2022/05/22 04:29:10;;;;;;;32.37;3.23;;;;;;;24.88;55.05;99515.59;7306392;19;153778;-41
2022/05/22 04:31:35;;;;;;;22.73;2.50;;;;;;;24.94;55.26;99523.63;7307697;19;129873;-37
2022/05/22 04:34:01;;;;;;;29.37;2.93;;;;;;;24.85;55.27;99513.28;7306792;19;130664;-38
2022/05/22 04:36:26;;;;;;;25.03;2.57;;;;;;;24.92;54.77;99530.06;7306670;19;151012;-38
2022/05/22 04:38:51;;;;;;;29.08;2.80;;;;;;;24.93;55.42;99534.31;7305963;19;154550;-37
2022/05/22 04:41:17;;;;;;;28.10;2.73;;;;;;;24.92;55.26;99543.22;7305096;19;140176;-37
2022/05/22 04:43:42;;;;;;;23.53;2.33;;;;;;;24.89;55.60;99533.03;7309506;19;129614;-38
2022/05/22 04:46:08;;;;;;;47.30;4.55;;;;;;;24.94;55.29;99546.50;7307153;19;132021;-38
2022/05/22 04:48:35;;;;;;;26.70;2.63;;;;;;;24.84;55.46;99530.06;7308650;19;129115;-39
2022/05/22 04:51:00;;;;;;;35.67;3.75;;;;;;;24.83;55.28;99536.28;7308457;19;129231;-38
2022/05/22 04:53:28;;;;;;;20.70;2.03;;;;;;;24.91;55.08;99547.66;7309048;19;131495;-39
2022/05/22 04:55:53;;;;;;;22.30;2.28;;;;;;;24.92;55.66;99551.09;7308758;19;130621;-42
2022/05/22 04:58:19;;;;;;;31.63;3.00;;;;;;;24.82;55.23;99542.53;7306059;19;129247;-39
2022/05/22 05:00:45;;;;;;;23.88;2.58;;;;;;;24.81;55.27;99540.91;7309571;19;129611;-38
2022/05/22 05:03:10;;;;;;;37.87;3.70;;;;;;;24.90;55.44;99563.59;7305535;19;129368;-38
2022/05/22 05:05:36;;;;;;;27.17;2.60;;;;;;;24.91;55.51;99560.78;7307969;19;130223;-38
2022/05/22 05:08:01;;;;;;;19.63;2.38;;;;;;;24.93;55.37;99552.75;7304972;19;154718;-38
2022/05/22 05:10:27;;;;;;;22.77;2.22;;;;;;;24.84;55.27;99543.22;7306731;19;154028;-38
2022/05/22 05:12:52;;;;;;;28.23;2.67;;;;;;;24.91;55.88;99554.69;7306988;19;158605;-38
2022/05/22 05:15:20;;;;;;;28.63;3.40;;;;;;;24.91;55.95;99563.44;7307303;19;131066;-38
2022/05/22 05:17:47;;;;;;;31.02;2.85;;;;;;;24.90;54.86;99561.78;7306458;19;129525;-37
2022/05/22 05:20:16;;;;;;;28.40;3.00;;;;;;;24.92;55.47;99553.75;7308616;19;131005;-38
2022/05/22 05:22:42;;;;;;;20.38;2.25;;;;;;;24.88;55.17;99555.03;7306954;19;130166;-38
2022/05/22 05:25:08;;;;;;;25.47;2.53;;;;;;;24.80;55.42;99547.13;7307027;19;129078;-39
2022/05/22 05:27:33;;;;;;;34.63;3.20;;;;;;;24.90;55.65;99561.78;7306944;19;129539;-37
2022/05/22 05:29:59;;;;;;;29.77;2.72;;;;;;;24.90;54.96;99563.59;7316144;19;129093;-41
2022/05/22 05:32:25;;;;;;;26.57;2.77;;;;;;;24.89;55.10;99569.84;7312631;19;158554;-38
2022/05/22 05:34:57;;;;;;;28.50;2.87;;;;;;;24.91;55.63;99565.22;7313716;19;129666;-38
2022/05/22 05:37:23;;;;;;;24.30;2.42;;;;;;;24.80;55.92;99549.75;7313210;19;130297;-39
2022/05/22 05:39:49;;;;;;;16.63;2.00;;;;;;;24.83;55.98;99557.31;7315471;19;129061;-38
2022/05/22 05:42:14;;;;;;;31.63;3.03;;;;;;;24.88;55.70;99563.75;7313059;19;129396;-37
2022/05/22 05:44:40;;;;;;;41.47;4.00;;;;;;;24.88;55.81;99561.13;7313646;19;157392;-39
2022/05/22 05:47:08;;;;;;;22.10;2.30;;;;;;;24.81;55.43;99551.44;7310082;19;129764;-39
2022/05/22 05:49:33;;;;;;;45.63;4.32;;;;;;;24.83;55.21;99559.94;7313184;19;130925;-38
2022/05/22 05:51:58;;;;;;;14.60;1.80;;;;;;;24.85;55.46;99556.19;7310763;19;159284;-38
2022/05/22 05:54:24;;;;;;;64.47;5.72;;;;;;;24.86;55.28;99555.19;7313061;19;130340;-38
2022/05/22 05:56:49;;;;;;;35.50;2.97;;;;;;;24.87;55.43;99550.78;7308005;19;154472;-38
2022/05/22 05:59:14;;;;;;;28.17;2.77;;;;;;;24.88;55.35;99557.66;7312196;19;153887;-39
2022/05/22 06:01:40;;;;;;;35.67;3.40;;;;;;;24.88;54.88;99541.88;7310095;19;158421;-40
2022/05/22 06:04:05;;;;;;;24.13;2.70;;;;;;;24.87;55.76;99546.34;7309699;19;145244;-41
2022/05/22 06:06:30;;;;;;;39.90;3.73;;;;;;;24.84;55.45;99540.56;7312440;19;134160;-39
2022/05/22 06:08:56;;;;;;;31.37;2.90;;;;;;;24.85;55.24;99552.72;7313356;19;146057;-39
2022/05/22 06:11:21;;;;;;;23.37;2.53;;;;;;;24.77;55.62;99544.81;7310864;19;159097;-39
2022/05/22 06:13:47;;;;;;;34.07;3.43;;;;;;;24.84;56.01;99556.34;7312207;19;145558;-41
2022/05/22 06:16:13;;;;;;;26.40;2.77;;;;;;;24.83;55.26;99555.53;7312075;19;129387;-40
2022/05/22 06:18:38;;;;;;;30.50;3.00;;;;;;;24.84;55.02;99559.00;7312557;19;129414;-39
2022/05/22 06:21:12;;;;;;;27.63;2.88;;;;;;;24.86;56.19;99564.91;7309302;19;129165;-41
2022/05/22 06:23:38;;;;;;;41.40;3.67;;;;;;;24.86;55.30;99559.66;7309444;19;130210;-40
2022/05/22 06:26:05;;;;;;;33.07;3.13;;;;;;;24.85;55.59;99558.00;7311752;19;129164;-40
2022/05/22 06:28:30;;;;;;;31.33;2.83;;;;;;;24.83;54.77;99554.69;7313302;19;128945;-38
2022/05/22 06:30:55;;;;;;;38.17;3.75;;;;;;;24.86;55.60;99549.94;7311794;19;130234;-38
2022/05/22 06:33:20;;;;;;;20.93;2.17;;;;;;;24.85;55.57;99547.47;7311512;19;158042;-41
2022/05/22 06:35:46;;;;;;;25.23;2.63;;;;;;;24.84;55.38;99545.84;7311998;19;129521;-40
2022/05/22 06:39:49;;;;;;;18.83;2.00;;;;;;;24.85;55.32;99547.47;7310829;19;129862;-41
2022/05/22 06:40:57;;;;;;;28.05;2.65;;;;;;;24.84;55.54;99541.38;7310226;19;130029;-38
2022/05/22 06:43:22;;;;;;;4.10;0.87;;;;;;;24.84;55.31;99540.56;7310451;19;157369;-41
2022/05/22 06:45:48;;;;;;;33.03;3.27;;;;;;;24.83;55.64;99545.00;7312694;19;128876;-38
2022/05/22 06:48:14;;;;;;;23.02;2.35;;;;;;;24.85;55.93;99531.69;7309728;19;129404;-41
2022/05/22 06:50:39;;;;;;;44.35;4.22;;;;;;;24.84;55.47;99524.81;7311583;19;159274;-41
2022/05/22 06:53:04;;;;;;;41.77;3.90;;;;;;;24.84;55.80;99530.06;7307785;19;158507;-38
2022/05/22 06:55:29;;;;;;;31.77;3.37;;;;;;;24.83;55.42;99523.13;7310803;19;154407;-39
2022/05/22 06:57:56;;;;;;;27.25;2.55;;;;;;;24.80;55.37;99526.09;7307880;19;155516;-39
2022/05/22 07:00:22;;;;;;;23.13;2.45;;;;;;;24.82;55.32;99518.88;7311553;19;129850;-39
2022/05/22 07:02:47;;;;;;;39.93;3.93;;;;;;;24.81;55.77;99511.97;7310561;19;130100;-39
2022/05/22 07:05:13;;;;;;;40.97;3.60;;;;;;;24.82;54.88;99521.50;7310268;19;129455;-37
2022/05/22 07:07:38;;;;;;;45.85;3.97;;;;;;;24.84;55.73;99519.53;7309569;19;129370;-38
2022/05/22 07:10:04;;;;;;;40.38;3.67;;;;;;;24.84;55.07;99519.53;7310408;19;156625;-37
2022/05/22 07:12:29;;;;;;;40.67;3.55;;;;;;;24.84;55.65;99519.53;7311221;19;130493;-39
2022/05/22 07:14:56;;;;;;;25.97;2.50;;;;;;;24.82;55.98;99521.50;7309075;19;156060;-40
2022/05/22 07:17:24;;;;;;;21.05;2.08;;;;;;;24.82;55.27;99521.50;7308625;19;129238;-38
2022/05/22 07:19:51;;;;;;;40.50;3.85;;;;;;;24.81;55.24;99511.97;7310482;19;129175;-42
2022/05/22 07:22:16;;;;;;;;;;;;;;;24.88;55.99;99512.94;7309315;19;129762;-40
2022/05/22 07:24:42;;;;;;;29.03;2.60;;;;;;;24.81;55.88;99514.63;7311204;19;129011;-41
2022/05/22 07:27:07;;;;;;;26.60;2.47;;;;;;;24.81;55.01;99519.88;7310359;19;129432;-38
2022/05/22 07:29:33;;;;;;;32.10;2.83;;;;;;;24.80;55.12;99505.06;7308960;19;158759;-39
2022/05/22 07:31:58;;;;;;;26.10;2.50;;;;;;;24.80;55.19;99505.06;7310414;19;159276;-38
2022/05/22 07:34:25;;;;;;;26.83;2.40;;;;;;;24.79;55.52;99506.06;7310315;19;129514;-37
2022/05/22 07:36:56;;;;;;;29.05;2.95;;;;;;;24.79;55.79;99500.78;7310280;19;129401;-38
2022/05/22 07:39:21;;;;;;;21.10;2.10;;;;;;;24.78;55.88;99497.34;7310151;19;130315;-39
2022/05/22 07:41:46;;;;;;;33.07;3.10;;;;;;;24.79;55.58;99485.81;7306593;19;138350;-40
2022/05/22 07:44:11;;;;;;;41.30;3.90;;;;;;;24.79;56.08;99485.03;7308683;19;154591;-39
2022/05/22 07:46:37;;;;;;;20.27;1.97;;;;;;;24.76;55.35;99480.88;7306845;19;154009;-39
2022/05/22 07:49:02;;;;;;;26.95;2.47;;;;;;;24.77;54.50;99486.97;7310840;19;158929;-40
2022/05/22 07:51:27;;;;;;;13.30;1.63;;;;;;;24.80;55.52;99486.66;7309440;19;132469;-39
2022/05/22 07:53:53;;;;;;;22.37;2.40;;;;;;;24.79;55.50;99480.56;7310031;19;154567;-40
2022/05/22 07:56:22;;;;;;;25.97;2.53;;;;;;;24.78;56.00;99472.84;7309455;19;154266;-39
2022/05/22 07:58:48;;;;;;;30.70;3.10;;;;;;;24.77;55.37;99473.84;7310820;19;130869;-39
2022/05/22 08:01:13;;;;;;;31.93;3.20;;;;;;;24.77;55.62;99474.66;7311041;19;129637;-41
2022/05/22 08:03:38;;;;;;;31.43;3.10;;;;;;;24.76;56.03;99459.06;7309413;19;129444;-41
2022/05/22 08:06:04;;;;;;;24.95;2.30;;;;;;;24.77;56.18;99464.16;7309891;19;130049;-38
2022/05/22 08:08:29;;;;;;;17.58;1.88;;;;;;;24.76;55.72;99474.84;7311294;19;158432;-41
2022/05/22 08:10:57;;;;;;;27.70;2.63;;;;;;;24.73;56.29;99481.22;7310933;19;129998;-37
2022/05/22 08:13:22;;;;;;;29.05;2.95;;;;;;;24.74;56.12;99475.00;7309531;19;128897;-38
2022/05/22 08:15:48;;;;;;;26.43;2.57;;;;;;;24.74;55.09;99476.78;7309263;19;153792;-37
2022/05/22 08:18:13;;;;;;;26.00;2.47;;;;;;;24.74;55.76;99476.78;7308042;19;129131;-38
2022/05/22 08:20:40;;;;;;;37.73;3.50;;;;;;;24.73;55.96;99478.59;7308493;19;151590;-38
2022/05/22 08:23:09;;;;;;;39.33;3.97;;;;;;;24.72;55.61;99479.59;7308299;19;129016;-38
2022/05/22 08:25:35;;;;;;;38.88;3.95;;;;;;;24.74;55.50;99477.63;7310355;19;129163;-38
2022/05/22 08:28:00;;;;;;;13.63;1.57;;;;;;;24.73;55.15;99467.25;7308341;19;129520;-37
2022/05/22 08:30:28;;;;;;;50.00;4.18;;;;;;;24.77;56.01;99466.78;7308913;19;159321;-39
2022/05/22 08:32:54;;;;;;;21.65;2.38;;;;;;;24.71;56.01;99479.75;7311730;19;129119;-37
2022/05/22 08:35:24;;;;;;;37.53;3.93;;;;;;;24.67;56.13;99476.59;7309740;19;128993;-40
2022/05/22 08:37:49;;;;;;;34.03;3.40;;;;;;;24.61;55.30;99476.41;7306821;19;132873;-38
2022/05/22 08:40:18;;;;;;;35.50;3.83;;;;;;;24.60;54.74;99480.00;7309725;19;129579;-40
2022/05/22 08:42:47;;;;;;;27.88;2.88;;;;;;;24.59;55.75;99478.38;7307495;19;129232;-40
2022/05/22 08:45:24;;;;;;;28.40;2.88;;;;;;;24.59;54.85;99473.13;7310767;19;128856;-41
2022/05/22 08:47:56;;;;;;;33.42;3.25;;;;;;;24.63;55.00;99474.44;7307973;19;129544;-39
2022/05/22 08:50:23;;;;;;;23.88;2.53;;;;;;;24.59;55.72;99473.13;7306541;19;159385;-38
2022/05/22 08:52:48;;;;;;;38.83;3.65;;;;;;;24.55;55.70;99477.88;7310322;19;129847;-37
2022/05/22 08:55:22;;;;;;;24.57;2.70;;;;;;;24.57;55.18;99475.91;7310013;19;135179;-38
2022/05/22 09:00:59;;;;;;;31.52;3.05;;;;;;;24.59;55.44;99478.38;7310731;19;130779;-38
2022/05/22 09:03:36;;;;;;;38.25;3.78;;;;;;;24.48;55.24;99464.56;7308681;19;129294;-37
2022/05/22 09:06:05;;;;;;;;;;;;;;;24.56;53.81;99462.94;7316325;19;130363;-38
2022/05/22 09:08:41;;;;;;;;;;;;;;;24.69;53.64;99484.34;7318057;19;130546;-38
2022/05/22 09:11:27;;;;;;;34.10;3.35;;;;;;;24.60;53.42;99474.75;7314855;19;130070;-38
2022/05/22 09:14:06;;;;;;;35.17;3.15;;;;;;;24.58;53.89;99484.63;7316677;19;128940;-38
2022/05/22 09:16:44;;;;;;;36.42;3.20;;;;;;;24.56;53.87;99483.97;7314629;19;129193;-38
2022/05/22 09:19:22;;;;;;;13.27;1.70;;;;;;;24.58;53.23;99476.75;7315776;19;130254;-37
2022/05/22 09:22:03;;;;;;;29.65;3.03;;;;;;;24.65;53.31;99493.50;7315121;19;129150;-37
2022/05/22 09:24:59;;;;;;;16.85;2.08;;;;;;;24.69;53.83;99481.72;7316931;19;128872;-38
2022/05/22 09:27:39;;;;;;;15.48;1.77;;;;;;;24.62;53.53;99488.56;7313213;19;129526;-38
2022/05/22 09:30:20;;;;;;;31.70;3.15;;;;;;;24.61;53.12;99484.31;7313642;19;129929;-37
2022/05/22 09:32:55;;;;;;;37.42;3.75;;;;;;;24.57;53.44;99481.16;7314725;19;129610;-37
2022/05/22 09:35:33;;;;;;;21.52;2.38;;;;;;;24.59;53.87;99475.75;7314590;19;130424;-38
2022/05/22 09:38:14;;;;;;;43.60;3.85;;;;;;;24.58;53.75;99474.91;7313990;19;129145;-38
2022/05/22 09:40:46;;;;;;;33.10;3.15;;;;;;;24.56;53.47;99471.63;7312737;19;129767;-38
2022/05/22 09:43:33;;;;;;;46.25;3.97;;;;;;;24.59;53.95;99483.63;7313870;19;130351;-38
2022/05/22 09:46:17;;;;;;;30.00;2.90;;;;;;;24.46;54.13;99469.16;7313354;19;129037;-37
2022/05/22 09:48:50;;;;;;;34.30;3.45;;;;;;;24.53;53.84;99477.22;7314261;19;128947;-38
2022/05/22 09:51:44;;;;;;;32.72;3.28;;;;;;;24.56;53.80;99468.19;7314235;19;129768;-39
2022/05/22 09:54:29;;;;;;;29.08;3.05;;;;;;;24.44;53.70;99455.34;7313890;19;130344;-38
2022/05/22 09:57:03;;;;;;;19.98;2.05;;;;;;;24.52;53.97;99472.13;7311789;19;129208;-38
2022/05/22 09:59:56;;;;;;;26.23;2.70;;;;;;;24.48;53.38;99474.25;7313809;19;129898;-36
2022/05/22 10:02:27;;;;;;;18.85;1.98;;;;;;;24.46;53.47;99474.41;7313713;19;129811;-38
2022/05/22 10:05:11;;;;;;;29.20;3.08;;;;;;;24.48;53.59;99467.19;7311751;19;129185;-37
2022/05/22 10:07:47;;;;;;;24.00;2.85;;;;;;;24.46;53.55;99468.34;7313315;19;131215;-38
2022/05/22 10:10:37;;;;;;;35.10;3.53;;;;;;;24.53;53.43;99465.91;7314876;19;129652;-37
2022/05/22 10:13:28;;;;;;;27.70;2.70;;;;;;;24.50;53.10;99464.41;7311964;19;130272;-38
2022/05/22 10:16:14;;;;;;;77.32;8.85;;;;;;;24.52;52.73;99461.59;7313700;19;131773;-38
2022/05/22 10:18:55;;;;;;;55.20;6.07;;;;;;;24.52;52.99;99456.34;7315527;19;130782;-38
2022/05/22 10:21:52;;;;;;;403.98;66.20;;;;;;;24.52;52.71;99445.84;7311417;19;128893;-37
2022/05/22 10:24:30;;;;;;;100.05;14.80;;;;;;;24.46;52.32;99452.56;7308652;19;130125;-38
2022/05/22 10:27:33;;;;;;;119.70;15.88;;;;;;;24.49;53.22;99460.94;7311216;19;158511;-38
2022/05/22 10:30:06;;;;;;;165.95;24.25;;;;;;;24.52;52.91;99454.56;7313096;19;130113;-38
2022/05/22 10:32:39;;;;;;;161.55;31.27;;;;;;;24.48;52.91;99446.16;7310715;19;131637;-37
2022/05/22 10:35:14;;;;;;;138.68;21.85;;;;;;;24.44;53.19;99429.06;7313183;19;130129;-37
2022/05/22 10:38:13;;;;;;;172.02;24.88;;;;;;;24.58;52.29;99439.94;7309835;19;131643;-38
2022/05/22 10:43:33;;;;;;;132.43;20.80;;;;;;;24.54;52.51;99438.63;7308664;19;130245;-38
2022/05/22 10:45:58;;;;;;;135.23;21.65;;;;;;;24.53;51.91;99426.47;7310953;19;130720;-38
2022/05/22 10:48:24;;;;;;;98.17;19.23;;;;;;;24.55;52.47;99435.00;7307964;19;158646;-38
2022/05/22 10:51:03;;;;;;;130.13;19.37;;;;;;;24.48;53.40;99418.25;7312631;19;129155;-37
2022/05/22 10:53:38;;;;;;;91.95;17.33;;;;;;;24.56;52.78;99436.66;7310012;19;129891;-38
2022/05/22 10:56:06;;;;;;;106.35;17.08;;;;;;;24.52;52.64;99428.25;7311407;19;131534;-38
2022/05/22 10:58:34;;;;;;;116.15;17.80;;;;;;;24.55;53.17;99440.25;7311830;19;131054;-38
2022/05/22 11:01:14;;;;;;;86.47;16.20;;;;;;;24.54;52.66;99428.09;7311981;19;129631;-38
2022/05/22 11:03:40;;;;;;;98.85;16.08;;;;;;;24.54;51.83;99428.94;7311473;19;128960;-38
2022/05/22 11:06:17;;;;;;;87.47;14.32;;;;;;;24.57;53.22;99422.50;7311543;19;131599;-37
2022/05/22 11:08:56;;;;;;;80.05;14.88;;;;;;;24.55;53.50;99429.72;7312602;19;129207;-38
2022/05/22 11:11:31;;;;;;;68.35;13.88;;;;;;;24.55;53.50;99424.47;7309960;19;130870;-39
2022/05/22 11:14:19;;;;;;;75.80;15.70;;;;;;;24.59;52.96;99417.91;7313158;19;129090;-39
2022/05/22 11:16:44;;;;;;;98.05;16.23;;;;;;;24.43;52.90;99401.16;7307946;19;130018;-38
2022/05/22 11:19:21;;;;;;;75.90;13.85;;;;;;;24.48;52.52;99413.78;7311197;19;157752;-37
2022/05/22 11:22:04;;;;;;;99.85;15.52;;;;;;;24.53;53.51;99421.22;7309972;19;130041;-37
2022/05/22 11:24:54;;;;;;;79.25;15.43;;;;;;;24.58;53.79;99418.91;7309056;19;129607;-37
2022/05/22 11:27:56;;;;;;;78.18;14.68;;;;;;;24.55;54.11;99420.03;7307208;19;130872;-38
2022/05/22 11:30:48;;;;;;;80.93;15.73;;;;;;;24.55;53.75;99419.22;7311023;19;130798;-39
2022/05/22 11:33:35;;;;;;;87.43;15.23;;;;;;;24.54;53.84;99407.06;7309020;19;130556;-42
2022/05/22 11:36:19;;;;;;;70.30;14.07;;;;;;;24.51;53.00;99402.94;7308587;19;129801;-39
2022/05/22 11:38:54;;;;;;;84.85;15.35;;;;;;;24.48;53.61;99394.59;7308603;19;129187;-40
2022/05/22 11:41:34;;;;;;;73.43;12.48;;;;;;;24.51;53.41;99396.88;7309244;19;129770;-41
2022/05/22 11:44:36;;;;;;;75.60;14.45;;;;;;;24.53;53.98;99397.56;7309753;19;130035;-39
2022/05/22 11:47:26;;;;;;;71.75;12.93;;;;;;;24.51;53.85;99392.44;7305525;19;129494;-38